Time;durP1;ratioP1;P1;durP2;ratioP2;P2;SDS_P1;SDS_P2;PMS_P1;PMS_P2;Temp;Humidity;BMP_temperature;BMP_pressure;BME280_temperature;BME280_humidity;BME280_pressure;Samples;Min_cycle;Max_cycle;Signal;HPM_P1;HPM_P2
2022/08/01 00:01:48;;;;;;;0.10;0.10;;;18.10;99.90;;;;;;5019813;28;20482;-79
2022/08/01 00:39:15;;;;;;;0.10;0.10;;;18.10;99.90;;;;;;5586365;23;20446;-84
2022/08/01 00:41:40;;;;;;;0.10;0.10;;;18.10;99.90;;;;;;5043152;28;20449;-96
2022/08/01 00:44:06;;;;;;;0.10;0.00;;;18.00;99.90;;;;;;5043553;28;20264;-80
2022/08/01 00:46:32;;;;;;;0.10;0.10;;;18.00;99.90;;;;;;5043504;28;20190;-80
2022/08/01 00:48:59;;;;;;;0.10;0.07;;;18.00;99.90;;;;;;5059816;28;20324;-81
2022/08/01 00:59:48;;;;;;;0.10;0.00;;;18.00;99.90;;;;;;5319943;23;20557;-97
2022/08/01 01:02:13;;;;;;;0.10;0.10;;;18.00;99.90;;;;;;5059689;28;20430;-96
2022/08/01 01:04:39;;;;;;;0.10;0.10;;;18.00;99.90;;;;;;5041640;28;20425;-91
2022/08/01 01:07:18;;;;;;;0.10;0.10;;;17.90;99.90;;;;;;5071517;23;20266;-82
2022/08/01 01:10:02;;;;;;;0.10;0.10;;;17.90;99.90;;;;;;5059384;28;20179;-90
2022/08/01 01:15:41;;;;;;;0.00;0.00;;;17.90;99.90;;;;;;5513823;23;20482;-96
2022/08/01 01:18:16;;;;;;;0.10;0.10;;;17.90;99.90;;;;;;5039210;28;20410;-96
2022/08/01 01:21:00;;;;;;;0.10;0.10;;;17.90;99.90;;;;;;5236219;23;20549;-96
2022/08/01 01:23:45;;;;;;;0.10;0.10;;;17.80;99.90;;;;;;5025984;28;20439;-96
2022/08/01 01:39:15;;;;;;;0.10;0.10;;;17.90;99.90;;;;;;5820000;23;20486;-84
2022/08/01 01:59:45;;;;;;;0.10;0.10;;;17.70;99.90;;;;;;6108542;23;20404;-94
2022/08/01 02:02:12;;;;;;;0.10;0.10;;;17.80;99.90;;;;;;5019044;28;20432;-80
2022/08/01 02:07:35;;;;;;;0.10;0.10;;;17.80;99.90;;;;;;5043724;23;20555;-96
2022/08/01 02:15:04;;;;;;;0.10;0.10;;;17.70;99.90;;;;;;5203659;23;20505;-96
2022/08/01 02:17:31;;;;;;;0.10;0.10;;;17.70;99.90;;;;;;5036720;28;20478;-96
2022/08/01 02:19:57;;;;;;;0.10;0.10;;;17.80;99.90;;;;;;5019212;28;20455;-96
2022/08/01 02:22:32;;;;;;;0.00;0.00;;;17.80;99.90;;;;;;5039692;28;20443;-96
2022/08/01 02:28:01;;;;;;;0.10;0.10;;;17.70;99.90;;;;;;5517707;22;20492;-96
2022/08/01 02:42:18;;;;;;;0.00;0.00;;;17.60;99.90;;;;;;5016453;28;20470;-96
2022/08/01 02:44:46;;;;;;;0.10;0.10;;;17.70;99.90;;;;;;5015672;28;20515;-96
2022/08/01 02:55:04;;;;;;;0.00;0.00;;;17.60;99.90;;;;;;5101248;22;20495;-96
2022/08/01 03:00:06;;;;;;;0.00;0.00;;;17.60;99.90;;;;;;5138585;23;20492;-96
2022/08/01 03:02:33;;;;;;;0.00;0.00;;;17.50;99.90;;;;;;5059424;28;20953;-96
2022/08/01 03:05:02;;;;;;;0.00;0.00;;;17.60;99.90;;;;;;5077932;23;20496;-96
2022/08/01 03:07:29;;;;;;;0.07;0.07;;;17.50;99.90;;;;;;5038312;28;20448;-96
2022/08/01 03:09:57;;;;;;;0.00;0.00;;;17.60;99.90;;;;;;5041806;23;20425;-87
2022/08/01 03:12:27;;;;;;;0.00;0.00;;;17.50;99.90;;;;;;5032686;23;20417;-90
2022/08/01 03:14:55;;;;;;;0.00;0.00;;;17.50;99.90;;;;;;5067532;28;20480;-96
2022/08/01 03:19:58;;;;;;;0.10;0.10;;;17.50;99.90;;;;;;5236212;23;20473;-83
2022/08/01 03:28:22;;;;;;;0.10;0.10;;;17.50;99.90;;;;;;5201561;23;20493;-96
2022/08/01 03:47:52;;;;;;;0.10;0.10;;;17.50;99.90;;;;;;5186540;23;20501;-96
2022/08/01 03:50:20;;;;;;;0.00;0.00;;;17.40;99.90;;;;;;5054786;23;20223;-96
2022/08/01 03:52:49;;;;;;;0.10;0.10;;;17.50;99.90;;;;;;5041595;28;20417;-79
2022/08/01 03:57:50;;;;;;;0.10;0.10;;;17.50;99.90;;;;;;5016636;28;20491;-96
2022/08/01 04:00:18;;;;;;;0.00;0.00;;;17.40;99.90;;;;;;5056047;23;20497;-96
2022/08/01 04:02:48;;;;;;;0.00;0.00;;;17.40;99.90;;;;;;5033733;28;20429;-96
2022/08/01 04:05:15;;;;;;;0.10;0.10;;;17.40;99.90;;;;;;5327651;23;21015;-96
2022/08/01 04:07:47;;;;;;;0.00;0.00;;;17.40;99.90;;;;;;5022894;28;20447;-96
2022/08/01 04:10:12;;;;;;;0.10;0.10;;;17.40;99.90;;;;;;5039714;28;20418;-96
2022/08/01 04:15:20;;;;;;;0.10;0.10;;;17.40;99.90;;;;;;5010625;28;20321;-96
2022/08/01 04:20:21;;;;;;;0.10;0.10;;;17.40;99.90;;;;;;5038763;23;20474;-95
2022/08/01 04:22:47;;;;;;;0.10;0.10;;;17.40;99.90;;;;;;5048220;28;20502;-96
2022/08/01 04:25:34;;;;;;;0.00;0.00;;;17.50;99.90;;;;;;5052350;28;20438;-96
2022/08/01 04:28:03;;;;;;;0.10;0.10;;;17.40;99.90;;;;;;5036880;28;20165;-95
2022/08/01 04:33:01;;;;;;;0.00;0.00;;;17.40;99.90;;;;;;5053782;28;20450;-90
2022/08/01 04:35:29;;;;;;;0.10;0.10;;;17.40;99.90;;;;;;5042814;28;20533;-96
2022/08/01 04:37:57;;;;;;;0.00;0.00;;;17.50;99.90;;;;;;5042199;28;20413;-90
2022/08/01 04:40:23;;;;;;;0.10;0.10;;;17.50;99.90;;;;;;5270340;23;20490;-95
2022/08/01 04:42:49;;;;;;;0.10;0.10;;;17.40;99.90;;;;;;5018779;28;20444;-96
2022/08/01 04:45:16;;;;;;;0.10;0.10;;;17.40;99.90;;;;;;5004291;28;20991;-96
2022/08/01 04:47:44;;;;;;;0.10;0.10;;;17.30;99.90;;;;;;5006341;28;20977;-96
2022/08/01 04:50:10;;;;;;;0.00;0.00;;;17.30;99.90;;;;;;5006602;28;20427;-96
2022/08/01 04:52:38;;;;;;;0.10;0.10;;;17.30;99.90;;;;;;5000822;28;20436;-96
2022/08/01 04:55:05;;;;;;;0.00;0.00;;;17.30;99.90;;;;;;5013529;28;20570;-96
2022/08/01 04:57:34;;;;;;;0.10;0.10;;;17.40;99.90;;;;;;5008983;28;20507;-95
2022/08/01 05:00:02;;;;;;;0.00;0.00;;;17.40;99.90;;;;;;5017299;28;20443;-96
2022/08/01 05:02:28;;;;;;;0.10;0.10;;;17.40;99.90;;;;;;5012807;28;20535;-95
2022/08/01 05:04:55;;;;;;;0.00;0.00;;;17.50;99.90;;;;;;5011739;28;20467;-95
2022/08/01 05:07:20;;;;;;;0.10;0.10;;;17.40;99.90;;;;;;5005983;28;20444;-96
2022/08/01 05:09:46;;;;;;;0.00;0.00;;;17.40;99.90;;;;;;5011632;28;20444;-96
2022/08/01 05:12:11;;;;;;;0.00;0.00;;;17.50;99.90;;;;;;5006342;28;20641;-96
2022/08/01 05:14:37;;;;;;;0.10;0.10;;;17.50;99.90;;;;;;5019352;23;20244;-94
2022/08/01 05:17:06;;;;;;;0.00;0.00;;;17.40;99.90;;;;;;5022544;28;20287;-96
2022/08/01 05:19:36;;;;;;;0.00;0.00;;;17.40;99.90;;;;;;5015326;28;20188;-95
2022/08/01 05:22:04;;;;;;;0.00;0.00;;;17.40;99.90;;;;;;5031132;28;20480;-96
2022/08/01 05:24:31;;;;;;;0.10;0.10;;;17.40;99.90;;;;;;5030078;28;20441;-96
2022/08/01 05:26:58;;;;;;;0.00;0.00;;;17.50;99.90;;;;;;5027973;28;20526;-95
2022/08/01 05:29:24;;;;;;;0.00;0.00;;;17.50;99.90;;;;;;5027496;28;20455;-96
2022/08/01 05:31:50;;;;;;;0.10;0.10;;;17.50;99.90;;;;;;5026094;28;20950;-94
2022/08/01 05:34:15;;;;;;;0.00;0.00;;;17.50;99.90;;;;;;5032227;28;20467;-93
2022/08/01 05:36:42;;;;;;;0.00;0.00;;;17.50;99.90;;;;;;5009514;28;20476;-94
2022/08/01 05:39:07;;;;;;;0.00;0.00;;;17.70;99.90;;;;;;5018867;28;20241;-95
2022/08/01 05:41:33;;;;;;;0.00;0.00;;;17.60;99.90;;;;;;5021276;28;20454;-96
2022/08/01 05:43:59;;;;;;;0.10;0.10;;;17.60;99.90;;;;;;5044304;28;20188;-96
2022/08/01 05:46:24;;;;;;;0.10;0.10;;;17.60;99.90;;;;;;5043306;28;20200;-96
2022/08/01 05:51:26;;;;;;;0.00;0.00;;;17.60;99.90;;;;;;5018925;23;20258;-96
2022/08/01 05:53:52;;;;;;;0.10;0.10;;;17.60;99.90;;;;;;5028176;23;20499;-96
2022/08/01 05:56:18;;;;;;;0.10;0.10;;;17.70;99.90;;;;;;5032378;23;20510;-96
2022/08/01 05:58:44;;;;;;;0.00;0.00;;;17.70;99.90;;;;;;5006390;28;20428;-96
2022/08/01 06:01:09;;;;;;;0.00;0.00;;;17.70;99.90;;;;;;5001663;28;20458;-96
2022/08/01 06:03:36;;;;;;;0.10;0.10;;;17.80;99.90;;;;;;5027019;23;20695;-96
2022/08/01 06:06:03;;;;;;;0.00;0.00;;;17.80;99.90;;;;;;5038075;23;20206;-96
2022/08/01 06:08:29;;;;;;;0.10;0.10;;;17.80;99.90;;;;;;5045925;28;20442;-96
2022/08/01 06:10:55;;;;;;;0.10;0.10;;;17.80;99.90;;;;;;5043262;28;20447;-96
2022/08/01 06:13:21;;;;;;;0.10;0.10;;;17.80;99.90;;;;;;5030250;28;20439;-96
2022/08/01 06:15:46;;;;;;;0.00;0.00;;;17.80;99.90;;;;;;5035505;28;20530;-96
2022/08/01 06:18:12;;;;;;;0.07;0.07;;;17.70;99.90;;;;;;5035182;28;20206;-96
2022/08/01 06:20:38;;;;;;;0.00;0.00;;;17.80;99.90;;;;;;5034650;28;20187;-96
2022/08/01 06:23:04;;;;;;;0.00;0.00;;;17.80;99.90;;;;;;5022899;28;20423;-96
2022/08/01 06:25:29;;;;;;;0.10;0.10;;;17.70;99.90;;;;;;5029407;28;20180;-96
2022/08/01 06:27:55;;;;;;;0.00;0.00;;;17.70;99.90;;;;;;5036367;28;20200;-96
2022/08/01 06:30:21;;;;;;;0.00;0.00;;;17.50;99.90;;;;;;5031897;28;20184;-96
2022/08/01 06:32:47;;;;;;;0.10;0.10;;;17.50;99.90;;;;;;5017707;28;20183;-96
2022/08/01 06:35:13;;;;;;;0.10;0.10;;;17.50;99.90;;;;;;5029704;28;20578;-94
2022/08/01 06:37:38;;;;;;;0.00;0.00;;;17.60;99.90;;;;;;5024664;28;20529;-96
2022/08/01 06:40:06;;;;;;;0.10;0.10;;;17.60;99.90;;;;;;5004914;28;20445;-91
2022/08/01 06:42:35;;;;;;;0.00;0.00;;;17.60;99.90;;;;;;5013520;28;20219;-93
2022/08/01 06:45:05;;;;;;;0.10;0.10;;;17.40;99.90;;;;;;5019629;28;20536;-92
2022/08/01 06:47:30;;;;;;;0.00;0.00;;;17.40;99.90;;;;;;5000765;28;21029;-95
2022/08/01 06:49:56;;;;;;;0.00;0.00;;;17.40;99.90;;;;;;5011510;28;20550;-90
2022/08/01 06:52:21;;;;;;;0.10;0.10;;;17.40;99.90;;;;;;5017192;28;20199;-94
2022/08/01 06:54:47;;;;;;;0.00;0.00;;;17.30;99.90;;;;;;5021755;28;20212;-93
2022/08/01 06:57:13;;;;;;;0.00;0.00;;;17.30;99.90;;;;;;5005281;28;20191;-93
2022/08/01 06:59:38;;;;;;;0.10;0.10;;;17.40;99.90;;;;;;5025336;28;20218;-96
2022/08/01 07:02:04;;;;;;;0.00;0.00;;;17.30;99.90;;;;;;5032232;28;20179;-95
2022/08/01 07:04:29;;;;;;;0.00;0.00;;;17.30;99.90;;;;;;5018316;28;20189;-94
2022/08/01 07:06:57;;;;;;;0.07;0.07;;;17.40;99.90;;;;;;5009409;28;20595;-93
2022/08/01 07:09:23;;;;;;;0.10;0.10;;;17.40;99.90;;;;;;5018723;28;20199;-95
2022/08/01 07:11:50;;;;;;;0.00;0.00;;;17.50;99.90;;;;;;5025355;28;20441;-94
2022/08/01 07:14:16;;;;;;;0.00;0.00;;;17.50;99.90;;;;;;5035929;28;20234;-95
2022/08/01 07:16:41;;;;;;;0.10;0.10;;;17.50;99.90;;;;;;5030859;28;20540;-95
2022/08/01 07:19:07;;;;;;;0.10;0.10;;;17.50;99.90;;;;;;5017673;28;20195;-94
2022/08/01 07:21:33;;;;;;;0.10;0.10;;;18.10;99.90;;;;;;5031055;28;20176;-91
2022/08/01 07:23:58;;;;;;;0.00;0.00;;;18.40;99.90;;;;;;5034884;28;20438;-91
2022/08/01 07:26:24;;;;;;;0.00;0.00;;;18.10;99.90;;;;;;5029743;28;20191;-93
2022/08/01 07:28:50;;;;;;;0.10;0.10;;;18.20;99.90;;;;;;5031401;28;20188;-94
2022/08/01 07:31:15;;;;;;;0.00;0.00;;;17.90;99.90;;;;;;5029374;28;20641;-94
2022/08/01 07:33:41;;;;;;;0.00;0.00;;;17.90;99.90;;;;;;4998549;28;20255;-92
2022/08/01 07:36:06;;;;;;;0.00;0.00;;;17.90;99.90;;;;;;5020142;28;20183;-93
2022/08/01 07:38:32;;;;;;;0.00;0.00;;;17.90;99.90;;;;;;5031179;28;20640;-93
2022/08/01 07:40:57;;;;;;;0.10;0.10;;;18.10;99.90;;;;;;5034412;28;20643;-95
2022/08/01 07:43:23;;;;;;;0.00;0.00;;;18.30;99.90;;;;;;4998898;28;20199;-94
2022/08/01 07:45:48;;;;;;;0.10;0.00;;;18.50;99.90;;;;;;5001194;28;20621;-93
2022/08/01 07:48:14;;;;;;;0.00;0.00;;;18.30;99.90;;;;;;5025306;28;20278;-94
2022/08/01 07:50:39;;;;;;;0.10;0.00;;;18.20;99.90;;;;;;5025254;28;20196;-93
2022/08/01 07:53:05;;;;;;;0.10;0.10;;;18.00;99.90;;;;;;5030560;28;20253;-96
2022/08/01 07:55:30;;;;;;;0.10;0.00;;;18.10;99.90;;;;;;5017764;28;20322;-94
2022/08/01 07:57:56;;;;;;;0.10;0.00;;;18.40;99.90;;;;;;5019702;28;21830;-95
2022/08/01 08:00:22;;;;;;;0.10;0.00;;;18.60;99.90;;;;;;5027244;28;20198;-95
2022/08/01 08:02:47;;;;;;;0.10;0.07;;;18.80;99.90;;;;;;5019542;28;20191;-93
2022/08/01 08:05:13;;;;;;;0.00;0.00;;;18.80;99.90;;;;;;5019243;28;20276;-87
2022/08/01 08:07:39;;;;;;;0.10;0.00;;;19.00;99.90;;;;;;4994687;28;20306;-87
2022/08/01 08:10:05;;;;;;;0.00;0.00;;;19.10;99.90;;;;;;5020600;28;20199;-87
2022/08/01 08:12:31;;;;;;;0.10;0.00;;;19.20;99.90;;;;;;5014509;28;20863;-87
2022/08/01 08:15:00;;;;;;;0.10;0.10;;;19.40;99.90;;;;;;5012271;28;20551;-87
2022/08/01 08:17:27;;;;;;;0.10;0.00;;;19.60;99.90;;;;;;5018124;28;20195;-86
2022/08/01 08:19:53;;;;;;;0.10;0.10;;;19.40;99.90;;;;;;5016108;28;20478;-88
2022/08/01 08:22:19;;;;;;;0.10;0.10;;;19.10;99.90;;;;;;5021814;28;20446;-90
2022/08/01 08:24:45;;;;;;;0.10;0.00;;;19.30;99.90;;;;;;5018322;28;20484;-88
2022/08/01 08:27:11;;;;;;;0.10;0.00;;;19.60;99.90;;;;;;5019621;28;20229;-87
2022/08/01 08:29:37;;;;;;;0.10;0.00;;;19.60;99.90;;;;;;5000896;28;21063;-88
2022/08/01 08:32:02;;;;;;;0.10;0.00;;;19.90;99.90;;;;;;5037377;28;20437;-90
2022/08/01 08:34:28;;;;;;;0.10;0.10;;;19.90;99.90;;;;;;5018051;28;20479;-90
2022/08/01 08:36:55;;;;;;;0.10;0.10;;;19.60;99.90;;;;;;5017882;28;20184;-89
2022/08/01 08:39:21;;;;;;;0.10;0.10;;;19.40;99.90;;;;;;5017746;28;20274;-88
2022/08/01 08:41:48;;;;;;;0.10;0.10;;;19.70;99.90;;;;;;5012870;28;20435;-90
2022/08/01 08:44:15;;;;;;;0.10;0.00;;;20.00;99.90;;;;;;5012583;28;20450;-91
2022/08/01 08:46:44;;;;;;;0.10;0.10;;;20.20;99.90;;;;;;5025924;28;20457;-91
2022/08/01 08:49:11;;;;;;;0.10;0.10;;;19.80;99.90;;;;;;5012896;28;20447;-89
2022/08/01 08:51:41;;;;;;;0.10;0.10;;;19.40;99.90;;;;;;5029481;28;20968;-90
2022/08/01 08:54:11;;;;;;;0.00;0.00;;;19.90;99.90;;;;;;5007080;28;20490;-90
2022/08/01 08:56:37;;;;;;;0.10;0.00;;;19.70;99.90;;;;;;5011656;28;20455;-88
2022/08/01 08:59:03;;;;;;;0.10;0.10;;;19.60;99.90;;;;;;5021990;28;20437;-88
2022/08/01 09:01:34;;;;;;;0.10;0.00;;;19.70;99.90;;;;;;5034953;28;20514;-88
2022/08/01 09:04:01;;;;;;;0.10;0.00;;;19.90;99.90;;;;;;5027882;28;20427;-89
2022/08/01 09:06:28;;;;;;;0.10;0.00;;;20.40;99.90;;;;;;5030176;28;20469;-90
2022/08/01 09:08:54;;;;;;;0.10;0.00;;;20.00;99.90;;;;;;5014368;28;20473;-89
2022/08/01 09:11:20;;;;;;;0.10;0.00;;;20.40;99.90;;;;;;5017853;28;20509;-89
2022/08/01 09:14:22;;;;;;;0.10;0.00;;;20.30;99.90;;;;;;5021564;28;20304;-88
2022/08/01 09:16:58;;;;;;;0.10;0.00;;;20.90;99.90;;;;;;5033753;28;20673;-89
2022/08/01 09:19:25;;;;;;;0.10;0.00;;;21.00;99.90;;;;;;5024005;28;20442;-90
2022/08/01 09:22:03;;;;;;;0.10;0.00;;;20.70;99.90;;;;;;5026107;28;20450;-90
2022/08/01 09:24:29;;;;;;;0.10;0.00;;;21.10;99.90;;;;;;5024436;28;20436;-90
2022/08/01 09:26:55;;;;;;;0.10;0.00;;;21.30;99.90;;;;;;5017173;28;20451;-91
2022/08/01 09:29:33;;;;;;;0.10;0.00;;;21.40;99.90;;;;;;5017816;28;20866;-91
2022/08/01 09:32:04;;;;;;;0.10;0.00;;;21.80;99.90;;;;;;5003551;28;20445;-90
2022/08/01 09:34:30;;;;;;;0.10;0.00;;;22.10;99.90;;;;;;5015994;28;20505;-91
2022/08/01 09:36:58;;;;;;;0.10;0.00;;;22.20;99.90;;;;;;5007253;28;20461;-91
2022/08/01 09:39:28;;;;;;;0.10;0.00;;;22.50;99.90;;;;;;5024931;28;20568;-89
2022/08/01 09:41:56;;;;;;;0.10;0.00;;;22.00;99.90;;;;;;5023675;28;20450;-90
2022/08/01 09:44:42;;;;;;;0.10;0.00;;;22.20;99.90;;;;;;5028968;28;20928;-90
2022/08/01 09:47:08;;;;;;;0.10;0.00;;;22.00;99.90;;;;;;5003482;28;20490;-91
2022/08/01 09:49:35;;;;;;;0.10;0.00;;;22.20;99.90;;;;;;5023601;28;20910;-91
2022/08/01 09:52:16;;;;;;;0.10;0.00;;;22.60;99.90;;;;;;5021600;28;20195;-91
2022/08/01 09:54:43;;;;;;;0.10;0.00;;;22.90;99.90;;;;;;5016761;28;20499;-91
2022/08/01 09:57:15;;;;;;;0.10;0.00;;;23.30;99.90;;;;;;5025987;28;20495;-91
2022/08/01 09:59:44;;;;;;;0.10;0.00;;;23.30;99.90;;;;;;4999682;28;20438;-88
2022/08/01 10:02:13;;;;;;;0.10;0.00;;;23.00;99.90;;;;;;5024195;28;20439;-88
2022/08/01 10:04:47;;;;;;;0.10;0.00;;;22.90;99.90;;;;;;5022328;28;20479;-89
2022/08/01 10:07:15;;;;;;;0.10;0.00;;;22.60;99.90;;;;;;5020807;28;20478;-90
2022/08/01 10:09:41;;;;;;;0.10;0.00;;;22.90;99.90;;;;;;5017316;28;20441;-91
2022/08/01 10:12:09;;;;;;;0.10;0.00;;;23.20;99.90;;;;;;5002044;28;20451;-90
2022/08/01 10:14:36;;;;;;;0.10;0.00;;;23.20;99.90;;;;;;5022112;28;20721;-90
2022/08/01 10:17:02;;;;;;;0.10;0.00;;;23.10;99.90;;;;;;5012633;28;20442;-90
2022/08/01 10:19:29;;;;;;;0.10;0.00;;;23.30;99.90;;;;;;5026034;28;20477;-89
2022/08/01 10:21:57;;;;;;;0.10;0.00;;;23.30;99.90;;;;;;5021859;28;20707;-89
2022/08/01 10:24:23;;;;;;;0.10;0.00;;;22.70;99.90;;;;;;5019386;28;20454;-88
2022/08/01 10:27:08;;;;;;;0.10;0.00;;;23.50;99.90;;;;;;5015872;28;20447;-87
2022/08/01 10:29:39;;;;;;;0.10;0.00;;;23.80;99.90;;;;;;5017368;28;20482;-89
2022/08/01 10:32:08;;;;;;;0.10;0.00;;;23.10;99.90;;;;;;5019879;28;20512;-90
2022/08/01 10:34:35;;;;;;;0.10;0.00;;;24.10;99.90;;;;;;5000166;28;20476;-87
2022/08/01 10:37:01;;;;;;;0.10;0.00;;;24.20;99.90;;;;;;5023608;28;20454;-90
2022/08/01 10:39:29;;;;;;;0.10;0.00;;;24.00;99.90;;;;;;4995310;28;20809;-87
2022/08/01 10:41:56;;;;;;;0.10;0.00;;;24.30;99.90;;;;;;5052850;28;20440;-89
2022/08/01 10:44:23;;;;;;;0.10;0.00;;;24.70;99.90;;;;;;5045624;28;20458;-89
2022/08/01 10:46:54;;;;;;;0.10;0.00;;;24.30;99.90;;;;;;5028582;28;20988;-89
2022/08/01 10:49:23;;;;;;;0.10;0.00;;;23.70;99.90;;;;;;5025436;28;20466;-91
2022/08/01 10:51:49;;;;;;;0.10;0.00;;;24.50;99.90;;;;;;5015502;28;20443;-87
2022/08/01 10:54:14;;;;;;;0.10;0.00;;;25.10;99.90;;;;;;5016439;28;20551;-88
2022/08/01 10:56:48;;;;;;;0.10;0.07;;;25.00;99.90;;;;;;5016927;28;20200;-89
2022/08/01 10:59:21;;;;;;;0.10;0.00;;;25.20;99.90;;;;;;5019082;28;20197;-88
2022/08/01 11:01:59;;;;;;;0.10;0.00;;;25.80;99.90;;;;;;5024629;28;20449;-87
2022/08/01 11:04:54;;;;;;;0.10;0.00;;;26.30;99.90;;;;;;5029089;28;20461;-88
2022/08/01 11:07:35;;;;;;;0.10;0.00;;;26.30;99.90;;;;;;5021970;28;20537;-91
2022/08/01 11:10:14;;;;;;;0.10;0.00;;;25.90;99.90;;;;;;5014846;28;20492;-89
2022/08/01 11:12:41;;;;;;;0.10;0.00;;;26.00;99.90;;;;;;5027933;28;20434;-89
2022/08/01 11:15:09;;;;;;;0.10;0.00;;;25.10;99.90;;;;;;5027381;28;20985;-89
2022/08/01 11:17:36;;;;;;;0.10;0.00;;;24.90;99.90;;;;;;5033669;28;20410;-90
2022/08/01 11:20:06;;;;;;;0.10;0.00;;;24.80;99.90;;;;;;5032013;28;20814;-90
2022/08/01 11:22:52;;;;;;;0.10;0.00;;;24.70;99.90;;;;;;5020333;28;20525;-90
2022/08/01 11:25:18;;;;;;;0.10;0.00;;;24.80;99.90;;;;;;5019478;28;21016;-90
2022/08/01 11:27:43;;;;;;;0.10;0.00;;;24.40;99.90;;;;;;5011204;28;20530;-90
2022/08/01 11:30:09;;;;;;;0.10;0.00;;;24.80;99.90;;;;;;5020723;28;20194;-91
2022/08/01 11:32:56;;;;;;;0.10;0.00;;;25.70;99.90;;;;;;5028482;28;20191;-91
2022/08/01 11:35:26;;;;;;;0.10;0.00;;;26.40;99.90;;;;;;5012785;28;20223;-91
2022/08/01 11:37:55;;;;;;;0.10;0.00;;;26.10;99.90;;;;;;5015214;28;20431;-91
2022/08/01 11:40:28;;;;;;;0.10;0.00;;;26.30;99.90;;;;;;5004086;28;20496;-91
2022/08/01 11:43:12;;;;;;;0.10;0.00;;;25.40;99.90;;;;;;5033183;28;20481;-93
2022/08/01 11:46:07;;;;;;;0.10;0.00;;;26.90;99.90;;;;;;5023748;28;20489;-92
2022/08/01 11:48:32;;;;;;;0.10;0.00;;;26.10;99.90;;;;;;4997857;28;20436;-91
2022/08/01 11:50:58;;;;;;;0.00;0.00;;;26.20;99.90;;;;;;5020415;28;21041;-88
2022/08/01 11:53:24;;;;;;;0.10;0.00;;;26.50;99.90;;;;;;5028563;28;20199;-88
2022/08/01 11:55:51;;;;;;;0.10;0.00;;;26.80;99.90;;;;;;5027253;28;20683;-88
2022/08/01 11:58:26;;;;;;;0.07;0.00;;;27.70;99.90;;;;;;5025563;28;20192;-88
2022/08/01 12:00:56;;;;;;;0.10;0.00;;;28.30;99.90;;;;;;5016314;28;20501;-90
2022/08/01 12:03:27;;;;;;;0.10;0.00;;;27.90;99.90;;;;;;5014386;28;20467;-89
2022/08/01 12:05:55;;;;;;;0.07;0.00;;;28.20;99.90;;;;;;5026734;28;20451;-88
2022/08/01 12:08:26;;;;;;;0.10;0.00;;;28.60;99.90;;;;;;5006935;28;20584;-86
2022/08/01 12:10:51;;;;;;;0.10;0.00;;;28.40;99.90;;;;;;5024699;28;20517;-89
2022/08/01 12:13:17;;;;;;;0.10;0.00;;;27.40;99.90;;;;;;5029572;28;20533;-88
2022/08/01 12:15:44;;;;;;;0.00;0.00;;;27.20;99.90;;;;;;4993244;28;20223;-91
2022/08/01 12:18:09;;;;;;;0.00;0.00;;;27.00;99.90;;;;;;5001046;28;20183;-87
2022/08/01 12:20:38;;;;;;;0.00;0.00;;;27.80;99.90;;;;;;5017509;28;20451;-85
2022/08/01 12:23:09;;;;;;;0.10;0.00;;;27.40;99.90;;;;;;5025506;28;20231;-88
2022/08/01 12:25:36;;;;;;;0.00;0.00;;;27.40;99.90;;;;;;5017287;28;20446;-90
2022/08/01 12:28:04;;;;;;;0.10;0.00;;;27.70;99.90;;;;;;5016132;28;20438;-90
2022/08/01 12:30:34;;;;;;;0.00;0.00;;;27.00;99.90;;;;;;5019480;28;20523;-91
2022/08/01 12:33:01;;;;;;;0.00;0.00;;;27.90;99.90;;;;;;5002089;28;20429;-90
2022/08/01 12:35:29;;;;;;;0.00;0.00;;;27.60;99.90;;;;;;5015494;28;20497;-89
2022/08/01 12:38:01;;;;;;;0.00;0.00;;;28.10;99.90;;;;;;5027025;28;20438;-88
2022/08/01 12:40:35;;;;;;;0.00;0.00;;;28.10;99.90;;;;;;5005144;28;20985;-87
2022/08/01 12:43:06;;;;;;;0.00;0.00;;;28.30;99.90;;;;;;5031839;28;20429;-86
2022/08/01 12:45:43;;;;;;;0.00;0.00;;;28.20;99.90;;;;;;5018072;28;20443;-87
2022/08/01 12:48:11;;;;;;;0.00;0.00;;;28.30;99.90;;;;;;5021608;28;20446;-90
2022/08/01 12:50:39;;;;;;;0.00;0.00;;;27.60;99.90;;;;;;5009641;28;20434;-93
2022/08/01 12:53:05;;;;;;;0.00;0.00;;;28.00;99.90;;;;;;5021467;28;20438;-93
2022/08/01 12:55:31;;;;;;;0.00;0.00;;;27.50;99.90;;;;;;5030252;28;20865;-95
2022/08/01 12:58:08;;;;;;;0.00;0.00;;;27.50;99.90;;;;;;5024993;28;20960;-92
2022/08/01 13:00:35;;;;;;;0.00;0.00;;;27.70;99.90;;;;;;5013462;28;20537;-93
2022/08/01 13:03:11;;;;;;;0.00;0.00;;;27.10;99.90;;;;;;5020528;28;20550;-93
2022/08/01 13:05:51;;;;;;;0.00;0.00;;;26.80;99.90;;;;;;5013849;28;20442;-93
2022/08/01 13:08:22;;;;;;;0.00;0.00;;;26.80;99.90;;;;;;5013134;28;20471;-94
2022/08/01 13:10:49;;;;;;;0.00;0.00;;;27.00;99.90;;;;;;5027822;28;20509;-94
2022/08/01 13:13:16;;;;;;;0.00;0.00;;;27.50;99.90;;;;;;5026253;28;20481;-94
2022/08/01 13:15:43;;;;;;;0.00;0.00;;;27.80;99.90;;;;;;4997498;28;20493;-94
2022/08/01 13:18:29;;;;;;;0.00;0.00;;;27.20;99.80;;;;;;5047313;28;20508;-96
2022/08/01 13:21:29;;;;;;;0.00;0.00;;;27.60;99.90;;;;;;5021473;28;20466;-96
2022/08/01 13:24:10;;;;;;;0.00;0.00;;;27.70;99.90;;;;;;4966184;28;20427;-96
2022/08/01 13:26:49;;;;;;;0.00;0.00;;;27.90;99.90;;;;;;5016322;28;21029;-95
2022/08/01 13:29:18;;;;;;;0.00;0.00;;;27.50;99.90;;;;;;5028935;28;20432;-95
2022/08/01 13:31:44;;;;;;;0.00;0.00;;;27.50;99.90;;;;;;5025668;28;20443;-94
2022/08/01 13:34:10;;;;;;;0.00;0.00;;;27.20;99.90;;;;;;5011615;28;20470;-96
2022/08/01 13:36:37;;;;;;;0.00;0.00;;;26.90;99.90;;;;;;5010457;28;20462;-96
2022/08/01 13:41:48;;;;;;;0.00;0.00;;;26.40;99.90;;;;;;5033641;28;20480;-95
2022/08/01 13:44:14;;;;;;;0.00;0.00;;;26.20;99.90;;;;;;5036892;28;20491;-96
2022/08/01 13:46:41;;;;;;;0.00;0.00;;;26.20;99.90;;;;;;5009020;28;20278;-94
2022/08/01 13:49:08;;;;;;;0.00;0.00;;;26.30;99.90;;;;;;5002923;28;20625;-91
2022/08/01 13:51:34;;;;;;;0.00;0.00;;;26.40;99.90;;;;;;4999844;28;20438;-94
2022/08/01 13:54:00;;;;;;;0.00;0.00;;;26.70;99.90;;;;;;5027005;28;20496;-94
2022/08/01 13:56:27;;;;;;;0.00;0.00;;;26.70;99.90;;;;;;5026632;28;20953;-92
2022/08/01 13:58:54;;;;;;;0.00;0.00;;;26.50;99.90;;;;;;5019904;28;20739;-94
2022/08/01 14:01:20;;;;;;;0.00;0.00;;;26.80;99.90;;;;;;5016612;28;20435;-88
2022/08/01 14:03:46;;;;;;;0.10;0.00;;;26.60;99.90;;;;;;5029912;28;20496;-90
2022/08/01 14:06:11;;;;;;;0.10;0.00;;;26.10;99.90;;;;;;5018156;28;20432;-89
2022/08/01 14:08:37;;;;;;;0.10;0.00;;;25.70;99.90;;;;;;5016620;28;20451;-87
2022/08/01 14:11:02;;;;;;;0.10;0.00;;;26.50;99.90;;;;;;5014339;28;20197;-84
2022/08/01 14:13:28;;;;;;;0.10;0.00;;;25.70;99.90;;;;;;5029996;28;20179;-83
2022/08/01 14:15:55;;;;;;;0.00;0.00;;;25.40;99.90;;;;;;5019601;28;20578;-90
2022/08/01 14:18:21;;;;;;;0.00;0.00;;;25.60;99.90;;;;;;5005468;28;20218;-86
2022/08/01 14:20:46;;;;;;;0.00;0.00;;;25.40;99.90;;;;;;5017386;28;20872;-85
2022/08/01 14:23:12;;;;;;;0.00;0.00;;;25.60;99.90;;;;;;5023055;28;21410;-87
2022/08/01 14:25:39;;;;;;;0.00;0.00;;;26.20;99.90;;;;;;5026311;28;20184;-88
2022/08/01 14:28:05;;;;;;;0.00;0.00;;;26.60;99.90;;;;;;5018810;28;20179;-89
2022/08/01 14:30:32;;;;;;;0.00;0.00;;;26.60;99.90;;;;;;5016829;28;20500;-85
2022/08/01 14:32:57;;;;;;;0.00;0.00;;;26.00;99.90;;;;;;5012748;28;20525;-90
2022/08/01 14:35:23;;;;;;;0.00;0.00;;;25.70;99.90;;;;;;5021307;28;20490;-92
2022/08/01 14:37:48;;;;;;;0.00;0.00;;;26.00;99.90;;;;;;5016375;28;20658;-89
2022/08/01 14:40:14;;;;;;;0.00;0.00;;;26.20;99.90;;;;;;5015558;28;22115;-95
2022/08/01 14:42:39;;;;;;;0.00;0.00;;;26.00;99.90;;;;;;5011751;28;20570;-93
2022/08/01 14:45:08;;;;;;;0.00;0.00;;;26.30;99.90;;;;;;5007394;28;20191;-89
2022/08/01 14:47:38;;;;;;;0.00;0.00;;;26.20;99.90;;;;;;4999981;28;20817;-89
2022/08/01 14:50:06;;;;;;;0.00;0.00;;;26.00;99.90;;;;;;5016981;28;20445;-88
2022/08/01 14:52:33;;;;;;;0.00;0.00;;;25.90;99.90;;;;;;5002496;28;20447;-90
2022/08/01 14:54:59;;;;;;;0.00;0.00;;;25.60;99.90;;;;;;5009972;28;20845;-91
2022/08/01 14:57:25;;;;;;;0.00;0.00;;;25.10;99.90;;;;;;5022882;28;20529;-90
2022/08/01 14:59:50;;;;;;;0.00;0.00;;;25.20;99.90;;;;;;5023281;28;20198;-89
2022/08/01 15:02:17;;;;;;;0.00;0.00;;;25.00;99.90;;;;;;5020315;28;20454;-90
2022/08/01 15:04:44;;;;;;;0.00;0.00;;;24.70;99.90;;;;;;5046722;28;20248;-90
2022/08/01 15:07:10;;;;;;;0.00;0.00;;;24.70;99.90;;;;;;5029397;28;20833;-90
2022/08/01 15:09:36;;;;;;;0.00;0.00;;;24.40;99.90;;;;;;5000769;28;20454;-90
2022/08/01 15:12:01;;;;;;;0.00;0.00;;;24.60;99.90;;;;;;5003215;28;21027;-90
2022/08/01 15:14:48;;;;;;;0.00;0.00;;;24.80;99.90;;;;;;5021680;28;20316;-89
2022/08/01 15:17:15;;;;;;;0.00;0.00;;;24.80;99.90;;;;;;5003743;28;20198;-90
2022/08/01 15:19:40;;;;;;;0.00;0.00;;;24.80;99.90;;;;;;5019662;28;20439;-90
2022/08/01 15:22:06;;;;;;;0.00;0.00;;;24.90;99.90;;;;;;5010490;28;20524;-91
2022/08/01 15:24:31;;;;;;;0.00;0.00;;;24.70;99.90;;;;;;5015732;28;20192;-91
2022/08/01 15:26:57;;;;;;;0.00;0.00;;;23.90;99.90;;;;;;5039501;28;20191;-90